Time;durP1;ratioP1;P1;durP2;ratioP2;P2;SDS_P1;SDS_P2;PMS_P1;PMS_P2;Temp;Humidity;BMP_temperature;BMP_pressure;BME280_temperature;BME280_humidity;BME280_pressure;Samples;Min_cycle;Max_cycle;Signal;HPM_P1;HPM_P2
2023/08/14 00:02:02;;;;;;;5.85;2.28;;;16.30;99.90;;;;;;5025407;28;20038;-71
2023/08/14 00:04:27;;;;;;;6.75;2.45;;;16.20;99.90;;;;;;5045753;28;20051;-71
2023/08/14 00:06:54;;;;;;;7.13;2.38;;;16.20;99.90;;;;;;5045419;28;20157;-71
2023/08/14 00:09:20;;;;;;;5.32;2.20;;;16.20;99.90;;;;;;5042650;28;20064;-71
2023/08/14 00:11:46;;;;;;;6.95;2.20;;;16.20;99.90;;;;;;5043923;28;20314;-71
2023/08/14 00:14:12;;;;;;;6.32;2.40;;;16.20;99.90;;;;;;5041018;28;20049;-71
2023/08/14 00:16:37;;;;;;;6.70;2.72;;;16.20;99.90;;;;;;5042573;28;20040;-71
2023/08/14 00:19:03;;;;;;;8.23;2.70;;;16.20;99.90;;;;;;5040845;28;20131;-71
2023/08/14 00:21:29;;;;;;;8.60;2.05;;;16.10;99.90;;;;;;5042575;28;20055;-71
2023/08/14 00:23:55;;;;;;;8.55;2.60;;;16.10;99.90;;;;;;5042485;28;20047;-71
2023/08/14 00:26:20;;;;;;;4.10;2.28;;;16.10;99.90;;;;;;5044612;28;20041;-71
2023/08/14 00:28:46;;;;;;;6.55;2.22;;;16.10;99.90;;;;;;5041762;28;20045;-70
2023/08/14 00:31:12;;;;;;;5.30;1.95;;;16.10;99.90;;;;;;5021679;28;20045;-71
2023/08/14 00:33:38;;;;;;;5.78;1.95;;;16.00;99.90;;;;;;5039858;28;20543;-71
2023/08/14 00:36:05;;;;;;;6.75;2.13;;;16.00;99.90;;;;;;5043823;28;20033;-71
2023/08/14 00:38:31;;;;;;;4.38;2.33;;;16.00;99.90;;;;;;5044212;28;20123;-71
2023/08/14 00:40:57;;;;;;;6.47;2.28;;;16.00;99.90;;;;;;5035408;28;20118;-71
2023/08/14 00:43:23;;;;;;;6.20;2.22;;;15.90;99.90;;;;;;5041147;28;20509;-71
2023/08/14 00:45:52;;;;;;;6.10;2.58;;;15.90;99.90;;;;;;5042216;28;20060;-71
2023/08/14 00:48:19;;;;;;;6.05;2.47;;;15.90;99.90;;;;;;5027109;28;20049;-71
2023/08/14 00:50:45;;;;;;;4.00;1.98;;;15.90;99.90;;;;;;5025749;28;20045;-71
2023/08/14 00:53:14;;;;;;;4.40;2.20;;;15.80;99.90;;;;;;5042054;28;20052;-71
2023/08/14 00:55:39;;;;;;;6.38;3.00;;;15.80;99.90;;;;;;5039770;28;20048;-71
2023/08/14 00:58:05;;;;;;;6.32;3.08;;;15.80;99.90;;;;;;5041547;28;20040;-72
2023/08/14 01:00:34;;;;;;;6.32;2.88;;;15.80;99.90;;;;;;5023528;28;20219;-71
2023/08/14 01:03:01;;;;;;;5.82;2.90;;;15.80;99.90;;;;;;5046216;28;20066;-71
2023/08/14 01:05:26;;;;;;;7.13;3.15;;;15.80;99.90;;;;;;5042423;28;20790;-70
2023/08/14 01:07:52;;;;;;;7.40;3.22;;;15.70;99.90;;;;;;5026469;28;20041;-70
2023/08/14 01:10:19;;;;;;;5.90;3.08;;;15.70;99.90;;;;;;5040071;28;20684;-70
2023/08/14 01:13:10;;;;;;;6.38;3.10;;;15.70;99.90;;;;;;5042071;28;20060;-70
2023/08/14 01:15:44;;;;;;;5.55;3.42;;;15.70;99.90;;;;;;5041377;28;20048;-70
2023/08/14 01:18:15;;;;;;;6.28;3.20;;;15.70;99.90;;;;;;5041216;28;20040;-70
2023/08/14 01:20:44;;;;;;;7.70;3.40;;;15.60;99.90;;;;;;5040976;28;20120;-70
2023/08/14 01:23:32;;;;;;;11.27;4.10;;;15.60;99.90;;;;;;5041594;28;20049;-70
2023/08/14 01:25:58;;;;;;;7.63;3.75;;;15.60;99.90;;;;;;5041745;28;20052;-70
2023/08/14 01:28:24;;;;;;;8.55;3.70;;;15.60;99.90;;;;;;5041670;28;20671;-71
2023/08/14 01:30:50;;;;;;;7.93;3.50;;;15.60;99.90;;;;;;5025554;28;20045;-70
2023/08/14 01:33:15;;;;;;;7.28;3.70;;;15.60;99.90;;;;;;5038175;28;20295;-70
2023/08/14 01:35:54;;;;;;;7.32;3.50;;;15.60;99.90;;;;;;5026312;28;20052;-70
2023/08/14 01:38:39;;;;;;;7.50;4.15;;;15.50;99.90;;;;;;5041425;28;20044;-71
2023/08/14 01:41:12;;;;;;;6.68;3.58;;;15.50;99.90;;;;;;5041112;28;20037;-70
2023/08/14 01:43:43;;;;;;;9.93;4.15;;;15.50;99.90;;;;;;5042334;28;20124;-70
2023/08/14 01:46:11;;;;;;;10.45;3.72;;;15.50;99.90;;;;;;5039192;28;20091;-71
2023/08/14 01:48:39;;;;;;;8.93;3.40;;;15.40;99.90;;;;;;5042723;28;20102;-71
2023/08/14 01:51:05;;;;;;;9.65;3.75;;;15.40;99.90;;;;;;5043351;28;20052;-70
2023/08/14 01:53:35;;;;;;;6.93;3.90;;;15.50;99.90;;;;;;5044798;28;20060;-70
2023/08/14 01:56:01;;;;;;;9.18;4.28;;;15.50;99.90;;;;;;5036410;28;20118;-70
2023/08/14 01:58:27;;;;;;;8.25;4.28;;;15.40;99.90;;;;;;5044537;28;20107;-70
2023/08/14 02:00:53;;;;;;;7.55;4.55;;;15.40;99.90;;;;;;5027160;28;20037;-71
2023/08/14 02:03:19;;;;;;;6.93;3.78;;;15.40;99.90;;;;;;5036866;28;20037;-70
2023/08/14 02:05:44;;;;;;;7.60;4.05;;;15.40;99.90;;;;;;5045250;28;20655;-71
2023/08/14 02:08:10;;;;;;;10.15;4.57;;;15.30;99.90;;;;;;5043984;28;20405;-71
2023/08/14 02:10:36;;;;;;;7.60;4.35;;;15.40;99.90;;;;;;5038952;28;20070;-70
2023/08/14 02:13:02;;;;;;;10.73;5.32;;;15.30;99.90;;;;;;5040374;28;20045;-70
2023/08/14 02:15:27;;;;;;;9.90;4.90;;;15.30;99.90;;;;;;5038333;28;20045;-70
2023/08/14 02:17:53;;;;;;;9.20;4.60;;;15.30;99.90;;;;;;5042562;28;20398;-70
2023/08/14 02:20:19;;;;;;;9.05;3.83;;;15.30;99.90;;;;;;5025822;28;20136;-70
2023/08/14 02:22:44;;;;;;;10.65;4.50;;;15.20;99.90;;;;;;5068768;28;20129;-70
2023/08/14 02:25:10;;;;;;;9.88;4.85;;;15.20;99.90;;;;;;5042273;28;20127;-70
2023/08/14 02:27:36;;;;;;;7.93;3.83;;;15.20;99.90;;;;;;5039134;28;20122;-70
2023/08/14 02:30:02;;;;;;;7.82;4.53;;;15.20;99.90;;;;;;5042608;28;20048;-70
2023/08/14 02:32:27;;;;;;;9.60;4.80;;;15.20;99.90;;;;;;5038318;28;20063;-70
2023/08/14 02:34:53;;;;;;;9.52;4.43;;;15.20;99.90;;;;;;5041002;28;20037;-70
2023/08/14 02:37:19;;;;;;;9.55;4.95;;;15.20;99.90;;;;;;5040558;28;20520;-70
2023/08/14 02:39:45;;;;;;;11.63;5.00;;;15.20;99.90;;;;;;5041286;28;20041;-70
2023/08/14 02:42:13;;;;;;;13.30;5.50;;;15.10;99.90;;;;;;5038872;28;20045;-70
2023/08/14 02:44:39;;;;;;;10.18;5.03;;;15.10;99.90;;;;;;5042297;28;20053;-69
2023/08/14 02:47:05;;;;;;;7.97;4.10;;;15.10;99.90;;;;;;5040686;28;20513;-70
2023/08/14 02:49:31;;;;;;;8.70;4.55;;;15.10;99.90;;;;;;5040016;28;20382;-69
2023/08/14 02:51:57;;;;;;;7.82;3.95;;;15.10;99.90;;;;;;5037937;28;20123;-70
2023/08/14 02:54:22;;;;;;;10.10;4.57;;;15.10;99.90;;;;;;5043958;28;20049;-70
2023/08/14 02:56:48;;;;;;;8.10;4.93;;;15.10;99.90;;;;;;5039013;28;20064;-70
2023/08/14 02:59:15;;;;;;;10.65;5.40;;;15.10;99.90;;;;;;5041852;28;20091;-70
2023/08/14 03:01:41;;;;;;;10.50;5.45;;;15.00;99.90;;;;;;5045893;28;20052;-70
2023/08/14 03:04:07;;;;;;;9.45;5.78;;;15.00;99.90;;;;;;5045218;28;20040;-70
2023/08/14 03:06:33;;;;;;;8.68;5.90;;;15.00;99.90;;;;;;5043486;28;20047;-70
2023/08/14 03:08:59;;;;;;;10.60;5.95;;;15.00;99.90;;;;;;5043178;28;20464;-69
2023/08/14 03:11:25;;;;;;;10.02;5.72;;;15.00;99.90;;;;;;5044153;28;20453;-71
2023/08/14 03:13:51;;;;;;;7.82;5.78;;;15.00;99.90;;;;;;5044578;28;20115;-70
2023/08/14 03:16:17;;;;;;;12.60;6.43;;;14.90;99.90;;;;;;5028510;28;20036;-70
2023/08/14 03:18:42;;;;;;;7.90;5.53;;;14.90;99.90;;;;;;5043240;28;20528;-71
2023/08/14 03:21:08;;;;;;;9.60;6.07;;;15.00;99.90;;;;;;5073658;28;20130;-70
2023/08/14 03:23:35;;;;;;;11.02;6.00;;;14.90;99.90;;;;;;5044404;28;20040;-70
2023/08/14 03:26:01;;;;;;;11.25;5.90;;;14.90;99.90;;;;;;5046621;28;20052;-70
2023/08/14 03:28:27;;;;;;;11.68;6.93;;;14.90;99.90;;;;;;5046981;28;20098;-70
2023/08/14 03:30:53;;;;;;;14.32;6.75;;;14.90;99.90;;;;;;5042966;28;20088;-70
2023/08/14 03:33:19;;;;;;;12.50;6.25;;;14.90;99.90;;;;;;5027343;28;20141;-70
2023/08/14 03:35:44;;;;;;;13.07;6.47;;;14.90;99.90;;;;;;5044168;28;20041;-70
2023/08/14 03:38:10;;;;;;;10.88;6.93;;;15.00;99.90;;;;;;5043214;28;20037;-70
2023/08/14 03:40:36;;;;;;;12.25;7.30;;;14.90;99.90;;;;;;5043513;28;20120;-70
2023/08/14 03:43:02;;;;;;;12.95;7.10;;;14.90;99.90;;;;;;5077293;28;20429;-70
2023/08/14 03:45:28;;;;;;;11.98;6.68;;;14.90;99.90;;;;;;5023798;28;20435;-70
2023/08/14 03:47:53;;;;;;;12.57;7.63;;;14.90;99.90;;;;;;5039234;28;20084;-71
2023/08/14 03:50:19;;;;;;;15.98;7.63;;;14.90;99.90;;;;;;5043432;28;20098;-70
2023/08/14 03:52:45;;;;;;;11.32;7.40;;;14.90;99.90;;;;;;5025966;28;20068;-71
2023/08/14 03:55:11;;;;;;;13.52;8.07;;;14.90;99.90;;;;;;5042189;28;20052;-70
2023/08/14 03:57:36;;;;;;;13.73;8.32;;;14.90;99.90;;;;;;5045882;28;21217;-70
2023/08/14 04:00:03;;;;;;;13.40;8.27;;;14.90;99.90;;;;;;5036637;28;20115;-69
2023/08/14 04:02:28;;;;;;;14.45;8.38;;;14.90;99.90;;;;;;5037358;28;20060;-71
2023/08/14 04:04:54;;;;;;;14.82;9.30;;;14.90;99.90;;;;;;5042774;28;20393;-70
2023/08/14 04:07:20;;;;;;;14.05;9.07;;;14.90;99.90;;;;;;5037361;28;20061;-70
2023/08/14 04:09:46;;;;;;;15.75;9.07;;;14.90;99.90;;;;;;5046161;28;20049;-71
2023/08/14 04:12:11;;;;;;;15.48;9.80;;;14.90;99.90;;;;;;5049741;28;20051;-70
2023/08/14 04:14:37;;;;;;;15.70;9.88;;;14.90;99.90;;;;;;5039327;28;20033;-70
2023/08/14 04:17:03;;;;;;;14.20;9.40;;;14.90;99.90;;;;;;5045693;28;20494;-70
2023/08/14 04:19:29;;;;;;;14.63;9.07;;;14.90;99.90;;;;;;5043140;28;20107;-70
2023/08/14 04:21:55;;;;;;;13.98;9.40;;;14.90;99.90;;;;;;5037617;28;20044;-70
2023/08/14 04:24:21;;;;;;;14.88;9.07;;;14.90;99.90;;;;;;5038455;28;20357;-71
2023/08/14 04:26:46;;;;;;;16.27;8.90;;;14.90;99.90;;;;;;5038746;28;20136;-71
2023/08/14 04:29:13;;;;;;;15.77;9.40;;;14.90;99.90;;;;;;5041556;28;20071;-70
2023/08/14 04:31:39;;;;;;;13.32;9.38;;;14.90;99.90;;;;;;5027070;28;20048;-70
2023/08/14 04:34:06;;;;;;;12.98;8.60;;;14.90;99.90;;;;;;5043619;28;20053;-70
2023/08/14 04:36:34;;;;;;;14.68;8.55;;;14.90;99.90;;;;;;5043368;28;20049;-71
2023/08/14 04:39:00;;;;;;;17.05;9.85;;;14.90;99.90;;;;;;5042451;28;20096;-70
2023/08/14 04:41:26;;;;;;;17.10;9.65;;;14.90;99.90;;;;;;5044616;28;20682;-70
2023/08/14 04:43:53;;;;;;;15.95;10.00;;;15.00;99.90;;;;;;5044294;28;20448;-70
2023/08/14 04:46:36;;;;;;;16.88;9.93;;;14.90;99.90;;;;;;5026331;28;20136;-70
2023/08/14 04:49:04;;;;;;;18.42;10.25;;;15.00;99.90;;;;;;5041739;28;20373;-70
2023/08/14 04:51:31;;;;;;;18.38;10.27;;;15.00;99.90;;;;;;5044076;28;20385;-70
2023/08/14 04:53:58;;;;;;;18.73;9.98;;;15.00;99.90;;;;;;5043570;28;20149;-70
2023/08/14 04:56:24;;;;;;;16.20;9.35;;;15.00;99.90;;;;;;5043419;28;20192;-70
2023/08/14 04:58:51;;;;;;;18.15;10.13;;;15.00;99.90;;;;;;5040664;28;20051;-69
2023/08/14 05:01:16;;;;;;;18.80;9.93;;;15.10;99.90;;;;;;5042406;28;20049;-70
2023/08/14 05:03:42;;;;;;;17.20;9.73;;;15.10;99.90;;;;;;5044001;28;20029;-71
2023/08/14 05:06:08;;;;;;;21.27;9.93;;;15.10;99.90;;;;;;5026546;28;20056;-71
2023/08/14 05:08:34;;;;;;;13.77;9.25;;;15.10;99.90;;;;;;5041372;28;20029;-70
2023/08/14 05:10:59;;;;;;;18.42;10.70;;;15.10;99.90;;;;;;5041043;28;20047;-70
2023/08/14 05:13:25;;;;;;;15.57;9.57;;;15.10;99.90;;;;;;5042589;28;20061;-71
2023/08/14 05:15:51;;;;;;;18.73;9.20;;;15.20;99.90;;;;;;5040458;28;20141;-71
2023/08/14 05:18:18;;;;;;;16.33;8.82;;;15.20;99.90;;;;;;5042314;28;20390;-71
2023/08/14 05:20:48;;;;;;;16.65;9.70;;;15.20;99.90;;;;;;5041588;28;20037;-71
2023/08/14 05:23:14;;;;;;;17.08;9.30;;;15.20;99.90;;;;;;5042131;28;20037;-71
2023/08/14 05:25:44;;;;;;;18.08;10.07;;;15.20;99.90;;;;;;5041277;28;20401;-71
2023/08/14 05:28:10;;;;;;;16.55;9.52;;;15.30;99.90;;;;;;5042990;28;20045;-71
2023/08/14 05:30:37;;;;;;;13.57;8.95;;;15.30;99.90;;;;;;5041278;28;20052;-71
2023/08/14 05:33:03;;;;;;;14.48;9.40;;;15.30;99.90;;;;;;5038371;28;20037;-71
2023/08/14 05:35:29;;;;;;;20.13;10.40;;;15.30;99.90;;;;;;5040323;28;20043;-71
2023/08/14 05:37:56;;;;;;;15.77;9.95;;;15.40;99.90;;;;;;5042952;28;20642;-70
2023/08/14 05:40:23;;;;;;;15.50;9.90;;;15.40;99.90;;;;;;5022782;28;20052;-71
2023/08/14 05:43:10;;;;;;;16.33;9.63;;;15.40;99.90;;;;;;5035030;28;20829;-71
2023/08/14 05:45:37;;;;;;;17.38;9.35;;;15.40;99.90;;;;;;5040277;28;20110;-71
2023/08/14 05:48:05;;;;;;;12.98;8.80;;;15.40;99.90;;;;;;5035608;28;20156;-70
2023/08/14 05:50:32;;;;;;;15.50;9.57;;;15.50;99.90;;;;;;5038618;28;20052;-70
2023/08/14 05:53:03;;;;;;;21.50;10.90;;;15.50;99.90;;;;;;5032056;28;20126;-71
2023/08/14 05:55:30;;;;;;;12.75;8.32;;;15.50;99.90;;;;;;5049983;28;20500;-71
2023/08/14 05:57:56;;;;;;;17.00;9.73;;;15.60;99.90;;;;;;5031344;28;20517;-70
2023/08/14 06:00:24;;;;;;;18.67;9.70;;;15.60;99.90;;;;;;5032344;28;20060;-70
2023/08/14 06:02:51;;;;;;;22.88;9.82;;;15.60;99.90;;;;;;5023039;28;20123;-71
2023/08/14 06:05:17;;;;;;;19.50;10.63;;;15.70;99.90;;;;;;5027461;28;20099;-70
2023/08/14 06:07:43;;;;;;;13.23;9.27;;;15.70;99.90;;;;;;5021638;28;20480;-71
2023/08/14 06:10:09;;;;;;;18.50;9.35;;;15.90;99.90;;;;;;5023259;28;20041;-71
2023/08/14 06:12:35;;;;;;;21.45;10.05;;;15.80;99.90;;;;;;5026083;28;20091;-70
2023/08/14 06:15:01;;;;;;;19.48;10.48;;;15.80;99.90;;;;;;5024717;28;20045;-70
2023/08/14 06:17:28;;;;;;;19.52;10.18;;;15.90;99.90;;;;;;5025794;28;21478;-71
2023/08/14 06:19:54;;;;;;;20.63;9.98;;;15.90;99.90;;;;;;5025309;28;20040;-71
2023/08/14 06:22:20;;;;;;;15.15;8.93;;;16.00;99.90;;;;;;5013632;28;20038;-71
2023/08/14 06:24:46;;;;;;;16.52;9.25;;;16.00;99.90;;;;;;5026932;28;20163;-70
2023/08/14 06:27:12;;;;;;;17.73;8.82;;;16.10;99.90;;;;;;5028258;28;20072;-70
2023/08/14 06:29:37;;;;;;;11.82;8.18;;;16.10;99.90;;;;;;5032325;28;20116;-71
2023/08/14 06:32:06;;;;;;;15.30;8.52;;;16.20;99.90;;;;;;5028080;28;20193;-72
2023/08/14 06:34:32;;;;;;;20.73;8.07;;;16.20;99.90;;;;;;5032536;28;20041;-70
2023/08/14 06:36:58;;;;;;;17.60;8.63;;;16.30;99.90;;;;;;5032558;28;20571;-70
2023/08/14 06:39:24;;;;;;;17.02;7.88;;;16.30;99.90;;;;;;5032193;28;20560;-71
2023/08/14 06:41:49;;;;;;;15.43;7.72;;;16.30;99.90;;;;;;5031556;28;20048;-71
2023/08/14 06:44:15;;;;;;;15.52;8.18;;;16.30;99.90;;;;;;5010267;28;20277;-70
2023/08/14 06:46:41;;;;;;;16.13;8.05;;;16.40;99.90;;;;;;5029689;28;20080;-71
2023/08/14 06:49:07;;;;;;;16.85;8.48;;;16.40;99.90;;;;;;5032944;28;20040;-71
2023/08/14 06:51:33;;;;;;;16.73;7.35;;;16.50;99.90;;;;;;5034234;28;20433;-71
2023/08/14 06:53:59;;;;;;;14.43;7.20;;;16.50;99.90;;;;;;5035991;28;20471;-71
2023/08/14 06:56:25;;;;;;;15.45;7.78;;;16.60;99.90;;;;;;5035909;28;20796;-71
2023/08/14 06:58:51;;;;;;;13.90;7.15;;;16.60;99.90;;;;;;5029230;28;20076;-71
2023/08/14 07:01:17;;;;;;;11.70;7.68;;;16.60;99.90;;;;;;5034267;28;20163;-71
2023/08/14 07:03:42;;;;;;;12.65;7.25;;;16.70;99.90;;;;;;5030426;28;20052;-71
2023/08/14 07:06:08;;;;;;;14.93;7.75;;;16.70;99.90;;;;;;5052699;28;20132;-71
2023/08/14 07:08:34;;;;;;;19.45;8.48;;;16.80;99.90;;;;;;5031561;28;20572;-70
2023/08/14 07:11:00;;;;;;;14.35;8.40;;;16.80;99.90;;;;;;5028226;28;20040;-70
2023/08/14 07:13:26;;;;;;;14.57;7.95;;;16.90;99.90;;;;;;5032208;28;20040;-69
2023/08/14 07:15:52;;;;;;;13.57;7.45;;;17.00;99.90;;;;;;5032405;28;21114;-70
2023/08/14 07:18:18;;;;;;;17.35;7.63;;;17.00;99.90;;;;;;5031124;28;20124;-70
2023/08/14 07:20:47;;;;;;;17.98;8.00;;;17.10;99.90;;;;;;5030107;28;20128;-69
2023/08/14 07:23:17;;;;;;;15.15;7.10;;;17.20;99.90;;;;;;5029225;28;20120;-71
2023/08/14 07:25:44;;;;;;;16.40;7.72;;;17.20;99.90;;;;;;5022973;28;20045;-71
2023/08/14 07:28:10;;;;;;;16.77;7.32;;;17.30;99.90;;;;;;5038981;28;20107;-71
2023/08/14 07:30:37;;;;;;;17.30;7.63;;;17.40;99.90;;;;;;5038498;28;20056;-71
2023/08/14 07:33:04;;;;;;;13.07;7.47;;;17.50;99.90;;;;;;5034711;28;20048;-70
2023/08/14 07:35:30;;;;;;;15.90;6.43;;;17.60;99.90;;;;;;5036335;28;20094;-70
2023/08/14 07:37:57;;;;;;;13.57;6.40;;;17.70;99.90;;;;;;5036157;28;20502;-71
2023/08/14 07:40:24;;;;;;;16.58;6.22;;;17.70;99.90;;;;;;5036066;28;20052;-70
2023/08/14 07:42:49;;;;;;;15.35;6.65;;;17.80;99.90;;;;;;5057903;28;20086;-70
2023/08/14 07:45:15;;;;;;;14.13;6.63;;;17.90;99.90;;;;;;5039723;28;20084;-70
2023/08/14 07:47:41;;;;;;;10.98;5.63;;;18.00;99.90;;;;;;5038554;28;20037;-70
2023/08/14 07:50:08;;;;;;;10.25;5.40;;;18.10;99.90;;;;;;5021770;28;20037;-70
2023/08/14 07:52:34;;;;;;;10.38;5.53;;;18.20;99.90;;;;;;5042806;28;20037;-69
2023/08/14 07:55:01;;;;;;;13.30;4.93;;;18.20;99.90;;;;;;5041942;28;20103;-70
2023/08/14 07:57:27;;;;;;;13.18;5.03;;;18.20;99.90;;;;;;5026499;28;20045;-71
2023/08/14 07:59:54;;;;;;;11.77;5.68;;;18.30;99.90;;;;;;5041897;28;20123;-70
2023/08/14 08:02:20;;;;;;;13.15;5.40;;;18.30;99.90;;;;;;5057329;28;20489;-70
2023/08/14 08:04:46;;;;;;;13.68;4.60;;;18.30;99.90;;;;;;5044421;28;20053;-70
2023/08/14 08:07:12;;;;;;;11.40;4.88;;;18.30;99.90;;;;;;5038488;28;20128;-70
2023/08/14 08:09:38;;;;;;;11.50;5.03;;;18.30;99.90;;;;;;5022970;28;20053;-70
2023/08/14 08:12:05;;;;;;;14.35;5.53;;;18.40;99.90;;;;;;5020495;28;20183;-70
2023/08/14 08:14:32;;;;;;;9.50;5.70;;;18.40;99.90;;;;;;5038459;28;20045;-70
2023/08/14 08:16:57;;;;;;;12.00;6.00;;;18.40;99.90;;;;;;5036709;28;20041;-70
2023/08/14 08:19:23;;;;;;;11.75;5.47;;;18.40;99.90;;;;;;5039863;28;20056;-70
2023/08/14 08:21:49;;;;;;;16.67;6.65;;;18.40;99.90;;;;;;5041849;28;20055;-70
2023/08/14 08:24:15;;;;;;;16.90;5.38;;;18.50;99.90;;;;;;5044527;28;20044;-70
2023/08/14 08:26:40;;;;;;;14.98;6.00;;;18.50;99.90;;;;;;5042755;28;20318;-70
2023/08/14 08:29:06;;;;;;;11.43;5.90;;;18.60;99.90;;;;;;5037824;28;20665;-70
2023/08/14 08:31:32;;;;;;;14.95;6.20;;;18.60;99.90;;;;;;5024133;28;20068;-70
2023/08/14 08:33:58;;;;;;;10.90;5.47;;;18.70;99.90;;;;;;5041972;28;20125;-70
2023/08/14 08:36:24;;;;;;;11.70;5.82;;;18.80;99.90;;;;;;5040819;28;20051;-72
2023/08/14 08:38:49;;;;;;;11.18;5.82;;;18.90;99.90;;;;;;5042469;28;20564;-70
2023/08/14 08:41:25;;;;;;;15.27;5.55;;;18.90;99.90;;;;;;5042737;28;20045;-70
2023/08/14 08:44:00;;;;;;;10.75;5.38;;;19.00;99.90;;;;;;5042324;28;20045;-71
2023/08/14 08:46:27;;;;;;;9.85;4.80;;;19.10;99.90;;;;;;5038721;28;20060;-69
2023/08/14 08:48:54;;;;;;;13.52;4.32;;;19.20;99.90;;;;;;5024370;28;20539;-70
2023/08/14 08:51:21;;;;;;;11.20;3.97;;;19.20;99.90;;;;;;5038402;28;20076;-70
2023/08/14 08:53:47;;;;;;;8.70;3.30;;;19.30;99.90;;;;;;5040452;28;20056;-69
2023/08/14 08:56:14;;;;;;;10.25;3.50;;;19.40;99.90;;;;;;5042283;28;20057;-70
2023/08/14 08:58:40;;;;;;;8.38;3.10;;;19.50;99.90;;;;;;5020876;28;20540;-70
2023/08/14 09:01:07;;;;;;;7.45;2.95;;;19.60;99.90;;;;;;5034718;28;20740;-72
2023/08/14 09:03:32;;;;;;;8.88;2.80;;;19.70;99.90;;;;;;5040066;28;20056;-73
2023/08/14 09:05:59;;;;;;;5.35;2.20;;;19.70;99.90;;;;;;5037633;28;20053;-69
2023/08/14 09:08:25;;;;;;;7.82;2.30;;;19.80;99.90;;;;;;5020972;28;20064;-69
2023/08/14 09:10:51;;;;;;;6.80;2.28;;;19.90;99.90;;;;;;5039659;28;20051;-70
2023/08/14 09:13:17;;;;;;;6.97;1.85;;;19.90;99.90;;;;;;5042398;28;20053;-69
2023/08/14 09:15:44;;;;;;;10.70;2.13;;;19.80;99.90;;;;;;5027919;28;20049;-69
2023/08/14 09:18:10;;;;;;;8.73;2.17;;;19.80;99.90;;;;;;5036501;28;20041;-70
2023/08/14 09:20:38;;;;;;;7.03;1.90;;;19.80;99.90;;;;;;5036643;28;20049;-70
2023/08/14 09:23:04;;;;;;;9.43;2.30;;;19.80;99.90;;;;;;5027977;28;20049;-70
2023/08/14 09:25:31;;;;;;;7.60;2.00;;;19.90;99.90;;;;;;5026606;28;20445;-71
2023/08/14 09:27:57;;;;;;;7.45;2.35;;;19.90;99.90;;;;;;5034717;28;20132;-70
2023/08/14 09:30:27;;;;;;;6.72;2.17;;;20.10;99.90;;;;;;5025058;28;21517;-69
2023/08/14 09:32:55;;;;;;;7.13;2.10;;;20.20;99.90;;;;;;5025067;28;20045;-70
2023/08/14 09:35:21;;;;;;;8.13;2.30;;;20.30;99.90;;;;;;5023931;28;20056;-69
2023/08/14 09:37:49;;;;;;;6.75;1.88;;;20.40;99.90;;;;;;5027701;28;20050;-69
2023/08/14 09:40:16;;;;;;;7.22;1.90;;;20.60;99.90;;;;;;5029752;28;20467;-70
2023/08/14 09:42:44;;;;;;;11.52;1.90;;;20.60;99.90;;;;;;5071672;28;20500;-70
2023/08/14 09:45:14;;;;;;;9.20;1.70;;;20.80;99.90;;;;;;5020104;28;20156;-70
2023/08/14 09:47:45;;;;;;;5.10;1.58;;;20.90;99.90;;;;;;5031943;28;20063;-71
2023/08/14 09:50:13;;;;;;;4.45;1.45;;;21.00;99.90;;;;;;5035404;28;20042;-71
2023/08/14 09:52:45;;;;;;;6.07;1.60;;;21.00;99.90;;;;;;5050838;28;20072;-71
2023/08/14 09:55:13;;;;;;;9.35;1.80;;;21.20;99.90;;;;;;5034282;28;20376;-70
2023/08/14 09:57:40;;;;;;;5.93;1.40;;;21.30;99.90;;;;;;5039118;28;20059;-71
2023/08/14 10:00:06;;;;;;;6.13;1.67;;;21.30;99.90;;;;;;5034810;28;20041;-71
2023/08/14 10:02:33;;;;;;;6.00;1.27;;;21.40;99.90;;;;;;5032003;28;20406;-71
2023/08/14 10:05:01;;;;;;;6.93;1.70;;;21.40;99.90;;;;;;5038944;28;20111;-68
2023/08/14 10:07:27;;;;;;;7.15;1.65;;;21.50;99.90;;;;;;5034415;28;20080;-69
2023/08/14 10:09:59;;;;;;;5.80;1.13;;;21.50;99.90;;;;;;5043727;28;20417;-68
2023/08/14 10:12:35;;;;;;;4.57;1.20;;;21.60;99.90;;;;;;5025059;28;20049;-68
2023/08/14 10:15:07;;;;;;;5.03;1.45;;;21.60;99.90;;;;;;5033460;28;20059;-73
2023/08/14 10:17:50;;;;;;;5.43;1.48;;;21.70;99.90;;;;;;5031757;28;20100;-72
2023/08/14 10:20:18;;;;;;;7.65;1.48;;;21.80;99.90;;;;;;5037626;28;20067;-72
2023/08/14 10:22:45;;;;;;;7.45;1.38;;;21.80;99.90;;;;;;5024643;28;20045;-72
2023/08/14 10:25:12;;;;;;;4.10;1.10;;;21.80;99.90;;;;;;5060707;28;20051;-72
2023/08/14 10:27:38;;;;;;;4.90;1.23;;;21.90;99.90;;;;;;5024346;28;20486;-73
2023/08/14 10:30:05;;;;;;;5.72;1.40;;;22.00;99.90;;;;;;5021371;28;20760;-72
2023/08/14 10:32:31;;;;;;;4.65;1.20;;;22.00;99.90;;;;;;5041378;28;20049;-72
2023/08/14 10:34:59;;;;;;;6.07;1.38;;;22.10;99.90;;;;;;5036734;28;20045;-73
2023/08/14 10:37:40;;;;;;;4.38;1.27;;;22.10;99.90;;;;;;5024324;28;20056;-72
2023/08/14 10:40:32;;;;;;;6.28;1.35;;;22.10;99.90;;;;;;5035446;28;20064;-72
2023/08/14 10:43:00;;;;;;;8.52;1.40;;;22.20;99.90;;;;;;5031228;28;20052;-71
2023/08/14 10:45:28;;;;;;;5.30;1.10;;;22.20;99.90;;;;;;5033312;28;20052;-71
2023/08/14 10:48:00;;;;;;;4.65;1.30;;;22.20;99.90;;;;;;5037612;28;20041;-73
2023/08/14 10:50:28;;;;;;;3.38;1.35;;;22.30;99.90;;;;;;5035939;28;20781;-72
2023/08/14 10:52:58;;;;;;;7.43;1.40;;;22.40;99.90;;;;;;5038390;28;20128;-72
2023/08/14 10:55:34;;;;;;;5.47;1.23;;;22.50;99.90;;;;;;5022282;28;20119;-73
2023/08/14 10:58:00;;;;;;;6.47;1.20;;;22.50;99.90;;;;;;5035094;28;20530;-73
2023/08/14 11:00:26;;;;;;;4.93;1.00;;;22.60;99.90;;;;;;5033682;28;20198;-72
2023/08/14 11:02:52;;;;;;;4.47;0.98;;;22.70;99.90;;;;;;5029694;28;20408;-72
2023/08/14 11:05:17;;;;;;;7.78;1.20;;;22.70;99.90;;;;;;5037402;28;20053;-73
2023/08/14 11:07:59;;;;;;;4.75;1.10;;;22.70;99.90;;;;;;5035749;28;20045;-72
2023/08/14 11:10:27;;;;;;;6.55;1.23;;;22.70;99.90;;;;;;5033616;28;20462;-72
2023/08/14 11:12:55;;;;;;;5.53;1.10;;;22.70;99.90;;;;;;5037820;28;20033;-72
2023/08/14 11:15:21;;;;;;;5.30;1.30;;;22.80;99.90;;;;;;5034841;28;20892;-72
2023/08/14 11:17:48;;;;;;;6.50;1.40;;;22.80;99.90;;;;;;5038579;28;20418;-73
2023/08/14 11:20:14;;;;;;;4.53;1.20;;;22.80;99.90;;;;;;5022426;28;20049;-73
2023/08/14 11:22:44;;;;;;;4.20;1.23;;;22.90;99.90;;;;;;5038989;28;20078;-71
2023/08/14 11:25:13;;;;;;;5.45;1.30;;;22.90;99.90;;;;;;5036669;28;20604;-72
2023/08/14 11:27:39;;;;;;;3.25;1.23;;;22.90;99.90;;;;;;5033603;28;20044;-72
2023/08/14 11:30:06;;;;;;;4.70;1.50;;;23.00;99.90;;;;;;5033492;28;20867;-73
2023/08/14 11:32:32;;;;;;;3.60;1.00;;;23.00;99.90;;;;;;5027255;28;20076;-72
2023/08/14 11:34:58;;;;;;;6.85;1.23;;;23.10;99.90;;;;;;5043809;28;20055;-72
2023/08/14 11:37:23;;;;;;;3.53;1.17;;;23.20;99.90;;;;;;5043149;28;20474;-72
2023/08/14 11:39:49;;;;;;;5.03;1.05;;;23.20;99.90;;;;;;5013404;28;20053;-70
2023/08/14 11:42:15;;;;;;;4.72;1.27;;;23.20;99.90;;;;;;5010354;28;20402;-70
2023/08/14 11:44:41;;;;;;;6.03;1.42;;;23.30;99.90;;;;;;5017793;28;20040;-70
2023/08/14 11:47:07;;;;;;;7.35;2.17;;;23.30;99.90;;;;;;5028852;28;20048;-70
2023/08/14 11:49:37;;;;;;;6.68;1.50;;;23.40;99.90;;;;;;5012832;28;20053;-71
2023/08/14 11:52:04;;;;;;;7.00;1.27;;;23.40;99.90;;;;;;5028018;28;20123;-70
2023/08/14 11:54:31;;;;;;;5.15;1.40;;;23.50;99.90;;;;;;5039509;28;20049;-70
2023/08/14 11:57:00;;;;;;;9.25;1.35;;;23.50;99.90;;;;;;5017314;28;20037;-71
2023/08/14 11:59:26;;;;;;;5.60;1.73;;;23.60;99.90;;;;;;5034783;28;20041;-71
2023/08/14 12:01:51;;;;;;;5.55;1.35;;;23.60;99.90;;;;;;5023113;28;20129;-72
2023/08/14 12:04:17;;;;;;;8.45;2.92;;;23.70;99.90;;;;;;5038637;28;20041;-71
2023/08/14 12:06:43;;;;;;;9.90;3.92;;;23.70;99.90;;;;;;5037714;28;20044;-71
2023/08/14 12:09:12;;;;;;;8.05;2.70;;;23.70;99.90;;;;;;5023735;28;20044;-70
2023/08/14 12:11:38;;;;;;;6.18;1.30;;;23.80;99.90;;;;;;5041435;28;20517;-70
2023/08/14 12:14:06;;;;;;;5.60;1.42;;;23.80;99.90;;;;;;5037421;28;20048;-69
2023/08/14 12:16:32;;;;;;;5.75;1.55;;;23.80;99.90;;;;;;5041047;28;20049;-69
2023/08/14 12:18:57;;;;;;;3.90;1.20;;;23.80;99.90;;;;;;5041361;28;20052;-69
2023/08/14 12:21:27;;;;;;;4.32;1.35;;;23.90;99.90;;;;;;5019142;28;20048;-69
2023/08/14 12:23:55;;;;;;;5.70;1.42;;;24.00;99.90;;;;;;5034328;28;20049;-70
2023/08/14 12:26:21;;;;;;;4.85;1.50;;;24.00;99.90;;;;;;5041518;28;20052;-69
2023/08/14 12:28:47;;;;;;;5.57;1.55;;;24.10;99.90;;;;;;5034422;28;20493;-69
2023/08/14 12:31:16;;;;;;;5.05;1.33;;;24.10;99.90;;;;;;5037389;28;20049;-69
2023/08/14 12:33:42;;;;;;;4.47;1.33;;;24.00;99.90;;;;;;5041184;28;20063;-69
2023/08/14 12:36:11;;;;;;;7.70;1.40;;;24.00;99.90;;;;;;5021809;28;20041;-69
2023/08/14 12:38:37;;;;;;;4.45;1.50;;;24.00;99.90;;;;;;5041956;28;20049;-71
2023/08/14 12:41:04;;;;;;;6.32;1.50;;;24.00;99.90;;;;;;5039925;28;20045;-72